sensor_id;sensor_type;location;lat;lon;timestamp;P1;durP1;ratioP1;P2;durP2;ratioP2
24833;SDS011;12914;43.702;22.862;2022-07-29T00:01:05;4.22;;;2.95;;
24833;SDS011;12914;43.702;22.862;2022-07-29T00:03:31;3.33;;;3.03;;
24833;SDS011;12914;43.702;22.862;2022-07-29T00:05:57;4.78;;;2.83;;
24833;SDS011;12914;43.702;22.862;2022-07-29T00:08:22;4.30;;;3.08;;
24833;SDS011;12914;43.702;22.862;2022-07-29T00:10:48;4.57;;;3.42;;
24833;SDS011;12914;43.702;22.862;2022-07-29T00:13:13;4.30;;;3.38;;
24833;SDS011;12914;43.702;22.862;2022-07-29T00:15:39;4.35;;;3.63;;
24833;SDS011;12914;43.702;22.862;2022-07-29T00:18:05;4.13;;;3.42;;
24833;SDS011;12914;43.702;22.862;2022-07-29T00:20:30;4.65;;;3.40;;
24833;SDS011;12914;43.702;22.862;2022-07-29T00:22:56;4.05;;;3.63;;
24833;SDS011;12914;43.702;22.862;2022-07-29T00:25:21;4.65;;;3.35;;
24833;SDS011;12914;43.702;22.862;2022-07-29T00:27:47;3.95;;;3.35;;
24833;SDS011;12914;43.702;22.862;2022-07-29T00:30:13;4.53;;;3.55;;
24833;SDS011;12914;43.702;22.862;2022-07-29T00:32:38;6.30;;;3.85;;
24833;SDS011;12914;43.702;22.862;2022-07-29T00:35:04;4.18;;;3.47;;
24833;SDS011;12914;43.702;22.862;2022-07-29T00:37:49;4.78;;;3.72;;
24833;SDS011;12914;43.702;22.862;2022-07-29T00:40:15;4.68;;;3.70;;
24833;SDS011;12914;43.702;22.862;2022-07-29T00:42:48;5.10;;;3.83;;
24833;SDS011;12914;43.702;22.862;2022-07-29T00:45:15;5.90;;;3.88;;
24833;SDS011;12914;43.702;22.862;2022-07-29T00:47:42;5.38;;;4.20;;
24833;SDS011;12914;43.702;22.862;2022-07-29T00:50:08;5.18;;;4.68;;
24833;SDS011;12914;43.702;22.862;2022-07-29T00:52:36;7.15;;;4.55;;
24833;SDS011;12914;43.702;22.862;2022-07-29T00:55:07;6.95;;;4.35;;
24833;SDS011;12914;43.702;22.862;2022-07-29T00:57:35;5.40;;;4.05;;
24833;SDS011;12914;43.702;22.862;2022-07-29T01:00:07;7.28;;;5.10;;
24833;SDS011;12914;43.702;22.862;2022-07-29T01:02:36;7.00;;;4.40;;
24833;SDS011;12914;43.702;22.862;2022-07-29T01:05:02;6.20;;;4.05;;
24833;SDS011;12914;43.702;22.862;2022-07-29T01:07:30;6.10;;;4.80;;
24833;SDS011;12914;43.702;22.862;2022-07-29T01:09:58;5.88;;;4.65;;
24833;SDS011;12914;43.702;22.862;2022-07-29T01:12:26;5.35;;;3.90;;
24833;SDS011;12914;43.702;22.862;2022-07-29T01:14:53;8.23;;;4.22;;
24833;SDS011;12914;43.702;22.862;2022-07-29T01:17:28;4.45;;;3.35;;
24833;SDS011;12914;43.702;22.862;2022-07-29T01:28:14;4.32;;;3.42;;
24833;SDS011;12914;43.702;22.862;2022-07-29T01:30:53;4.00;;;3.10;;
24833;SDS011;12914;43.702;22.862;2022-07-29T01:33:19;4.38;;;3.78;;
24833;SDS011;12914;43.702;22.862;2022-07-29T01:36:07;3.55;;;2.75;;
24833;SDS011;12914;43.702;22.862;2022-07-29T01:38:39;4.80;;;3.28;;
24833;SDS011;12914;43.702;22.862;2022-07-29T01:43:42;4.10;;;3.55;;
24833;SDS011;12914;43.702;22.862;2022-07-29T01:46:15;5.35;;;3.70;;
24833;SDS011;12914;43.702;22.862;2022-07-29T01:51:40;3.90;;;3.15;;
24833;SDS011;12914;43.702;22.862;2022-07-29T01:54:18;3.10;;;2.80;;
24833;SDS011;12914;43.702;22.862;2022-07-29T01:56:51;4.22;;;3.38;;
24833;SDS011;12914;43.702;22.862;2022-07-29T01:59:18;4.68;;;2.92;;
24833;SDS011;12914;43.702;22.862;2022-07-29T02:01:45;4.80;;;3.33;;
24833;SDS011;12914;43.702;22.862;2022-07-29T02:04:15;4.32;;;3.05;;
24833;SDS011;12914;43.702;22.862;2022-07-29T02:06:43;4.50;;;3.33;;
24833;SDS011;12914;43.702;22.862;2022-07-29T02:09:11;5.18;;;3.17;;
24833;SDS011;12914;43.702;22.862;2022-07-29T02:11:39;3.53;;;2.92;;
24833;SDS011;12914;43.702;22.862;2022-07-29T02:14:07;5.93;;;2.70;;
24833;SDS011;12914;43.702;22.862;2022-07-29T02:16:36;4.78;;;3.17;;
24833;SDS011;12914;43.702;22.862;2022-07-29T02:19:04;3.65;;;2.75;;
24833;SDS011;12914;43.702;22.862;2022-07-29T02:21:31;3.95;;;2.78;;
24833;SDS011;12914;43.702;22.862;2022-07-29T02:23:59;3.63;;;2.65;;
24833;SDS011;12914;43.702;22.862;2022-07-29T02:26:26;3.33;;;2.85;;
24833;SDS011;12914;43.702;22.862;2022-07-29T02:28:54;3.65;;;2.95;;
24833;SDS011;12914;43.702;22.862;2022-07-29T02:31:22;3.53;;;2.78;;
24833;SDS011;12914;43.702;22.862;2022-07-29T02:33:51;4.50;;;3.13;;
24833;SDS011;12914;43.702;22.862;2022-07-29T02:36:18;4.45;;;2.92;;
24833;SDS011;12914;43.702;22.862;2022-07-29T02:38:47;5.05;;;2.92;;
24833;SDS011;12914;43.702;22.862;2022-07-29T02:41:16;4.90;;;3.15;;
24833;SDS011;12914;43.702;22.862;2022-07-29T02:43:46;4.18;;;2.97;;
24833;SDS011;12914;43.702;22.862;2022-07-29T02:46:16;3.33;;;3.00;;
24833;SDS011;12914;43.702;22.862;2022-07-29T02:48:51;5.32;;;3.60;;
24833;SDS011;12914;43.702;22.862;2022-07-29T02:51:25;4.38;;;3.42;;
24833;SDS011;12914;43.702;22.862;2022-07-29T02:53:57;3.58;;;3.15;;
24833;SDS011;12914;43.702;22.862;2022-07-29T02:56:28;4.82;;;3.58;;
24833;SDS011;12914;43.702;22.862;2022-07-29T02:59:01;4.82;;;3.03;;
24833;SDS011;12914;43.702;22.862;2022-07-29T03:01:31;4.30;;;3.63;;
24833;SDS011;12914;43.702;22.862;2022-07-29T03:04:00;6.80;;;3.53;;
24833;SDS011;12914;43.702;22.862;2022-07-29T03:06:28;4.90;;;3.92;;
24833;SDS011;12914;43.702;22.862;2022-07-29T03:08:57;5.20;;;4.05;;
24833;SDS011;12914;43.702;22.862;2022-07-29T03:11:25;5.13;;;3.88;;
24833;SDS011;12914;43.702;22.862;2022-07-29T03:13:51;4.57;;;3.88;;
24833;SDS011;12914;43.702;22.862;2022-07-29T03:16:18;5.47;;;4.05;;
24833;SDS011;12914;43.702;22.862;2022-07-29T03:18:45;5.40;;;3.40;;
24833;SDS011;12914;43.702;22.862;2022-07-29T03:21:12;5.55;;;4.50;;
24833;SDS011;12914;43.702;22.862;2022-07-29T03:23:38;5.13;;;4.45;;
24833;SDS011;12914;43.702;22.862;2022-07-29T03:26:09;5.43;;;4.55;;
24833;SDS011;12914;43.702;22.862;2022-07-29T03:28:35;5.93;;;3.78;;
24833;SDS011;12914;43.702;22.862;2022-07-29T03:31:00;5.18;;;4.28;;
24833;SDS011;12914;43.702;22.862;2022-07-29T03:33:26;9.07;;;4.55;;
24833;SDS011;12914;43.702;22.862;2022-07-29T03:35:53;7.80;;;4.75;;
24833;SDS011;12914;43.702;22.862;2022-07-29T03:38:19;5.85;;;4.35;;
24833;SDS011;12914;43.702;22.862;2022-07-29T03:40:53;4.68;;;3.97;;
24833;SDS011;12914;43.702;22.862;2022-07-29T03:43:21;4.80;;;3.75;;
24833;SDS011;12914;43.702;22.862;2022-07-29T03:45:50;7.10;;;4.30;;
24833;SDS011;12914;43.702;22.862;2022-07-29T03:48:19;5.03;;;3.80;;
24833;SDS011;12914;43.702;22.862;2022-07-29T03:50:49;4.55;;;3.92;;
24833;SDS011;12914;43.702;22.862;2022-07-29T03:53:16;4.68;;;4.13;;
24833;SDS011;12914;43.702;22.862;2022-07-29T03:55:46;8.88;;;4.30;;
24833;SDS011;12914;43.702;22.862;2022-07-29T03:58:16;5.47;;;4.45;;
24833;SDS011;12914;43.702;22.862;2022-07-29T04:00:42;5.13;;;3.75;;
24833;SDS011;12914;43.702;22.862;2022-07-29T04:03:09;4.57;;;3.47;;
24833;SDS011;12914;43.702;22.862;2022-07-29T04:05:35;7.03;;;4.32;;
24833;SDS011;12914;43.702;22.862;2022-07-29T04:08:01;4.80;;;3.80;;
24833;SDS011;12914;43.702;22.862;2022-07-29T04:10:27;5.15;;;3.88;;
24833;SDS011;12914;43.702;22.862;2022-07-29T04:12:52;6.13;;;3.63;;
24833;SDS011;12914;43.702;22.862;2022-07-29T04:15:18;4.35;;;3.67;;
24833;SDS011;12914;43.702;22.862;2022-07-29T04:17:44;4.68;;;3.85;;
24833;SDS011;12914;43.702;22.862;2022-07-29T04:20:10;5.47;;;4.60;;
24833;SDS011;12914;43.702;22.862;2022-07-29T04:22:38;7.53;;;4.93;;
24833;SDS011;12914;43.702;22.862;2022-07-29T04:25:07;5.18;;;4.32;;
24833;SDS011;12914;43.702;22.862;2022-07-29T04:27:33;6.55;;;4.22;;
24833;SDS011;12914;43.702;22.862;2022-07-29T04:29:58;6.35;;;4.50;;
24833;SDS011;12914;43.702;22.862;2022-07-29T04:32:24;6.10;;;4.53;;
24833;SDS011;12914;43.702;22.862;2022-07-29T04:34:51;6.18;;;4.53;;
24833;SDS011;12914;43.702;22.862;2022-07-29T04:37:16;5.47;;;4.40;;
24833;SDS011;12914;43.702;22.862;2022-07-29T04:39:42;7.47;;;4.93;;
24833;SDS011;12914;43.702;22.862;2022-07-29T04:42:07;5.82;;;4.50;;
24833;SDS011;12914;43.702;22.862;2022-07-29T04:44:34;7.10;;;4.40;;
24833;SDS011;12914;43.702;22.862;2022-07-29T04:47:00;5.70;;;5.05;;
24833;SDS011;12914;43.702;22.862;2022-07-29T04:49:25;8.98;;;5.53;;
24833;SDS011;12914;43.702;22.862;2022-07-29T04:51:51;6.30;;;4.68;;
24833;SDS011;12914;43.702;22.862;2022-07-29T04:54:16;5.82;;;5.15;;
24833;SDS011;12914;43.702;22.862;2022-07-29T04:56:42;6.60;;;5.20;;
24833;SDS011;12914;43.702;22.862;2022-07-29T04:59:07;6.65;;;4.95;;
24833;SDS011;12914;43.702;22.862;2022-07-29T05:01:33;5.95;;;5.28;;
24833;SDS011;12914;43.702;22.862;2022-07-29T05:03:59;7.32;;;5.22;;
24833;SDS011;12914;43.702;22.862;2022-07-29T05:06:25;6.30;;;4.55;;
24833;SDS011;12914;43.702;22.862;2022-07-29T05:08:50;6.45;;;5.20;;
24833;SDS011;12914;43.702;22.862;2022-07-29T05:11:15;6.50;;;5.00;;
24833;SDS011;12914;43.702;22.862;2022-07-29T05:13:41;5.50;;;4.90;;
24833;SDS011;12914;43.702;22.862;2022-07-29T05:16:07;5.60;;;4.75;;
24833;SDS011;12914;43.702;22.862;2022-07-29T05:18:33;6.72;;;5.03;;
24833;SDS011;12914;43.702;22.862;2022-07-29T05:20:59;5.57;;;4.95;;
24833;SDS011;12914;43.702;22.862;2022-07-29T05:23:24;6.75;;;5.22;;
24833;SDS011;12914;43.702;22.862;2022-07-29T05:25:50;7.55;;;5.40;;
24833;SDS011;12914;43.702;22.862;2022-07-29T05:28:15;7.53;;;4.95;;
24833;SDS011;12914;43.702;22.862;2022-07-29T05:30:41;8.73;;;5.43;;
24833;SDS011;12914;43.702;22.862;2022-07-29T05:33:07;7.38;;;5.72;;
24833;SDS011;12914;43.702;22.862;2022-07-29T05:35:32;6.72;;;5.03;;
24833;SDS011;12914;43.702;22.862;2022-07-29T05:37:59;6.07;;;5.35;;
24833;SDS011;12914;43.702;22.862;2022-07-29T05:40:25;7.85;;;5.63;;
24833;SDS011;12914;43.702;22.862;2022-07-29T05:42:51;9.32;;;6.15;;
24833;SDS011;12914;43.702;22.862;2022-07-29T05:45:16;7.28;;;6.25;;
24833;SDS011;12914;43.702;22.862;2022-07-29T05:47:42;7.00;;;6.03;;
24833;SDS011;12914;43.702;22.862;2022-07-29T05:50:07;10.32;;;6.72;;
24833;SDS011;12914;43.702;22.862;2022-07-29T05:52:33;8.40;;;6.90;;
24833;SDS011;12914;43.702;22.862;2022-07-29T05:54:59;7.47;;;6.20;;
24833;SDS011;12914;43.702;22.862;2022-07-29T05:57:27;8.10;;;6.75;;
24833;SDS011;12914;43.702;22.862;2022-07-29T05:59:53;7.93;;;6.20;;
24833;SDS011;12914;43.702;22.862;2022-07-29T06:02:19;7.68;;;6.88;;
24833;SDS011;12914;43.702;22.862;2022-07-29T06:04:44;7.57;;;6.55;;
24833;SDS011;12914;43.702;22.862;2022-07-29T06:07:10;8.88;;;7.40;;
24833;SDS011;12914;43.702;22.862;2022-07-29T06:09:36;10.60;;;6.55;;
24833;SDS011;12914;43.702;22.862;2022-07-29T06:12:02;8.75;;;7.43;;
24833;SDS011;12914;43.702;22.862;2022-07-29T06:14:28;8.30;;;7.13;;
24833;SDS011;12914;43.702;22.862;2022-07-29T06:16:53;8.15;;;7.32;;
24833;SDS011;12914;43.702;22.862;2022-07-29T06:19:19;8.43;;;7.30;;
24833;SDS011;12914;43.702;22.862;2022-07-29T06:21:46;8.07;;;6.65;;
24833;SDS011;12914;43.702;22.862;2022-07-29T06:24:12;11.57;;;7.03;;
24833;SDS011;12914;43.702;22.862;2022-07-29T06:26:39;8.40;;;6.68;;
24833;SDS011;12914;43.702;22.862;2022-07-29T06:29:06;7.40;;;6.70;;
24833;SDS011;12914;43.702;22.862;2022-07-29T06:31:32;7.47;;;6.68;;
24833;SDS011;12914;43.702;22.862;2022-07-29T06:33:57;7.95;;;6.82;;
24833;SDS011;12914;43.702;22.862;2022-07-29T06:36:23;9.90;;;7.82;;
24833;SDS011;12914;43.702;22.862;2022-07-29T06:38:49;8.73;;;7.55;;
24833;SDS011;12914;43.702;22.862;2022-07-29T06:41:15;8.32;;;7.25;;
24833;SDS011;12914;43.702;22.862;2022-07-29T06:43:41;7.88;;;7.05;;
24833;SDS011;12914;43.702;22.862;2022-07-29T06:46:10;8.32;;;7.38;;
24833;SDS011;12914;43.702;22.862;2022-07-29T06:48:37;8.07;;;6.80;;
24833;SDS011;12914;43.702;22.862;2022-07-29T06:51:04;8.30;;;6.43;;
24833;SDS011;12914;43.702;22.862;2022-07-29T06:53:31;7.53;;;6.78;;
24833;SDS011;12914;43.702;22.862;2022-07-29T06:55:58;8.13;;;7.10;;
24833;SDS011;12914;43.702;22.862;2022-07-29T06:58:25;8.48;;;6.63;;
24833;SDS011;12914;43.702;22.862;2022-07-29T07:00:51;8.95;;;7.38;;
24833;SDS011;12914;43.702;22.862;2022-07-29T07:03:17;7.45;;;6.75;;
24833;SDS011;12914;43.702;22.862;2022-07-29T07:05:43;7.35;;;6.65;;
24833;SDS011;12914;43.702;22.862;2022-07-29T07:08:09;7.68;;;6.88;;
24833;SDS011;12914;43.702;22.862;2022-07-29T07:10:35;7.40;;;6.53;;
24833;SDS011;12914;43.702;22.862;2022-07-29T07:13:01;9.63;;;7.93;;
24833;SDS011;12914;43.702;22.862;2022-07-29T07:15:27;9.07;;;7.53;;
24833;SDS011;12914;43.702;22.862;2022-07-29T07:17:53;10.05;;;8.10;;
24833;SDS011;12914;43.702;22.862;2022-07-29T07:20:19;11.20;;;7.78;;
24833;SDS011;12914;43.702;22.862;2022-07-29T07:22:44;7.85;;;7.15;;
24833;SDS011;12914;43.702;22.862;2022-07-29T07:25:10;8.52;;;7.68;;
24833;SDS011;12914;43.702;22.862;2022-07-29T07:27:36;8.80;;;7.20;;
24833;SDS011;12914;43.702;22.862;2022-07-29T07:30:03;8.60;;;7.72;;
24833;SDS011;12914;43.702;22.862;2022-07-29T07:32:33;8.50;;;6.90;;
24833;SDS011;12914;43.702;22.862;2022-07-29T07:34:59;8.07;;;7.03;;
24833;SDS011;12914;43.702;22.862;2022-07-29T07:37:25;9.70;;;7.13;;
24833;SDS011;12914;43.702;22.862;2022-07-29T07:39:51;8.48;;;7.68;;
24833;SDS011;12914;43.702;22.862;2022-07-29T07:42:18;8.32;;;7.53;;
24833;SDS011;12914;43.702;22.862;2022-07-29T07:44:44;8.07;;;7.28;;
24833;SDS011;12914;43.702;22.862;2022-07-29T07:47:11;8.45;;;7.72;;
24833;SDS011;12914;43.702;22.862;2022-07-29T07:49:37;8.27;;;7.07;;
24833;SDS011;12914;43.702;22.862;2022-07-29T07:52:03;7.82;;;6.97;;
24833;SDS011;12914;43.702;22.862;2022-07-29T07:54:30;8.60;;;7.70;;
24833;SDS011;12914;43.702;22.862;2022-07-29T07:56:56;11.52;;;7.78;;
24833;SDS011;12914;43.702;22.862;2022-07-29T07:59:22;9.20;;;8.27;;
24833;SDS011;12914;43.702;22.862;2022-07-29T08:01:48;10.27;;;9.20;;
24833;SDS011;12914;43.702;22.862;2022-07-29T08:04:14;9.63;;;8.05;;
24833;SDS011;12914;43.702;22.862;2022-07-29T08:06:39;10.60;;;7.32;;
24833;SDS011;12914;43.702;22.862;2022-07-29T08:09:05;8.32;;;7.53;;
24833;SDS011;12914;43.702;22.862;2022-07-29T08:11:30;8.18;;;7.35;;
24833;SDS011;12914;43.702;22.862;2022-07-29T08:13:56;9.27;;;8.30;;
24833;SDS011;12914;43.702;22.862;2022-07-29T08:16:22;9.13;;;8.23;;
24833;SDS011;12914;43.702;22.862;2022-07-29T08:18:50;8.50;;;7.80;;
24833;SDS011;12914;43.702;22.862;2022-07-29T08:21:16;11.30;;;7.93;;
24833;SDS011;12914;43.702;22.862;2022-07-29T08:23:43;8.80;;;7.60;;
24833;SDS011;12914;43.702;22.862;2022-07-29T08:26:18;8.50;;;7.70;;
24833;SDS011;12914;43.702;22.862;2022-07-29T08:28:45;7.38;;;6.68;;
24833;SDS011;12914;43.702;22.862;2022-07-29T08:31:13;8.77;;;7.88;;
24833;SDS011;12914;43.702;22.862;2022-07-29T08:33:40;8.80;;;8.00;;
24833;SDS011;12914;43.702;22.862;2022-07-29T08:36:05;8.32;;;7.47;;
24833;SDS011;12914;43.702;22.862;2022-07-29T08:38:31;10.80;;;9.07;;
24833;SDS011;12914;43.702;22.862;2022-07-29T08:40:58;8.32;;;7.53;;
24833;SDS011;12914;43.702;22.862;2022-07-29T08:43:26;10.27;;;8.25;;
24833;SDS011;12914;43.702;22.862;2022-07-29T08:45:55;10.27;;;8.13;;
24833;SDS011;12914;43.702;22.862;2022-07-29T08:48:22;9.65;;;8.40;;
24833;SDS011;12914;43.702;22.862;2022-07-29T08:50:50;8.43;;;7.55;;
24833;SDS011;12914;43.702;22.862;2022-07-29T08:53:19;8.50;;;7.80;;
24833;SDS011;12914;43.702;22.862;2022-07-29T08:55:48;9.35;;;8.40;;
24833;SDS011;12914;43.702;22.862;2022-07-29T09:00:44;8.27;;;7.47;;
24833;SDS011;12914;43.702;22.862;2022-07-29T09:03:15;9.02;;;8.23;;
24833;SDS011;12914;43.702;22.862;2022-07-29T09:05:43;13.43;;;9.18;;
24833;SDS011;12914;43.702;22.862;2022-07-29T09:08:10;11.20;;;8.45;;
24833;SDS011;12914;43.702;22.862;2022-07-29T09:10:38;11.60;;;9.68;;
24833;SDS011;12914;43.702;22.862;2022-07-29T09:13:03;10.40;;;9.40;;
24833;SDS011;12914;43.702;22.862;2022-07-29T09:15:29;10.00;;;9.00;;
24833;SDS011;12914;43.702;22.862;2022-07-29T09:17:54;10.18;;;8.98;;
24833;SDS011;12914;43.702;22.862;2022-07-29T09:20:21;9.93;;;8.93;;
24833;SDS011;12914;43.702;22.862;2022-07-29T09:22:48;9.98;;;8.38;;
24833;SDS011;12914;43.702;22.862;2022-07-29T09:25:36;9.50;;;8.60;;
24833;SDS011;12914;43.702;22.862;2022-07-29T09:28:07;10.07;;;9.07;;
24833;SDS011;12914;43.702;22.862;2022-07-29T09:30:56;12.05;;;9.30;;
24833;SDS011;12914;43.702;22.862;2022-07-29T09:33:23;10.15;;;8.73;;
24833;SDS011;12914;43.702;22.862;2022-07-29T09:36:00;10.75;;;9.65;;
24833;SDS011;12914;43.702;22.862;2022-07-29T09:38:29;10.32;;;9.35;;
24833;SDS011;12914;43.702;22.862;2022-07-29T09:40:58;12.35;;;9.82;;
24833;SDS011;12914;43.702;22.862;2022-07-29T09:43:26;14.00;;;10.07;;
24833;SDS011;12914;43.702;22.862;2022-07-29T09:45:52;11.27;;;10.18;;
24833;SDS011;12914;43.702;22.862;2022-07-29T09:48:19;13.15;;;9.57;;
24833;SDS011;12914;43.702;22.862;2022-07-29T09:50:46;10.57;;;9.30;;
24833;SDS011;12914;43.702;22.862;2022-07-29T09:56:12;9.43;;;8.52;;
24833;SDS011;12914;43.702;22.862;2022-07-29T09:58:39;10.07;;;9.07;;
24833;SDS011;12914;43.702;22.862;2022-07-29T10:01:04;12.10;;;9.40;;
24833;SDS011;12914;43.702;22.862;2022-07-29T10:03:30;9.98;;;8.52;;
24833;SDS011;12914;43.702;22.862;2022-07-29T10:06:09;12.52;;;9.30;;
24833;SDS011;12914;43.702;22.862;2022-07-29T10:08:36;10.00;;;8.57;;
24833;SDS011;12914;43.702;22.862;2022-07-29T10:11:23;10.98;;;10.00;;
24833;SDS011;12914;43.702;22.862;2022-07-29T10:13:48;10.18;;;9.18;;
24833;SDS011;12914;43.702;22.862;2022-07-29T10:16:14;9.43;;;8.50;;
24833;SDS011;12914;43.702;22.862;2022-07-29T10:18:41;9.05;;;8.18;;
24833;SDS011;12914;43.702;22.862;2022-07-29T10:21:08;9.68;;;8.68;;
24833;SDS011;12914;43.702;22.862;2022-07-29T10:23:35;9.77;;;8.75;;
24833;SDS011;12914;43.702;22.862;2022-07-29T10:26:02;10.02;;;9.10;;
24833;SDS011;12914;43.702;22.862;2022-07-29T10:28:29;8.35;;;7.60;;
24833;SDS011;12914;43.702;22.862;2022-07-29T10:30:58;9.40;;;8.48;;
24833;SDS011;12914;43.702;22.862;2022-07-29T10:36:04;11.98;;;9.43;;
24833;SDS011;12914;43.702;22.862;2022-07-29T10:41:37;10.10;;;8.27;;
24833;SDS011;12914;43.702;22.862;2022-07-29T10:44:06;9.68;;;8.70;;
24833;SDS011;12914;43.702;22.862;2022-07-29T10:46:41;9.75;;;8.85;;
24833;SDS011;12914;43.702;22.862;2022-07-29T10:59:39;9.30;;;8.48;;
24833;SDS011;12914;43.702;22.862;2022-07-29T11:10:37;10.00;;;8.60;;
24833;SDS011;12914;43.702;22.862;2022-07-29T11:13:03;9.63;;;8.07;;
24833;SDS011;12914;43.702;22.862;2022-07-29T11:15:29;7.72;;;6.97;;
24833;SDS011;12914;43.702;22.862;2022-07-29T11:18:21;9.55;;;8.02;;
24833;SDS011;12914;43.702;22.862;2022-07-29T11:23:32;10.88;;;9.18;;
24833;SDS011;12914;43.702;22.862;2022-07-29T11:34:25;9.35;;;8.30;;
24833;SDS011;12914;43.702;22.862;2022-07-29T11:45:02;10.70;;;7.85;;
24833;SDS011;12914;43.702;22.862;2022-07-29T11:47:30;8.85;;;8.15;;
24833;SDS011;12914;43.702;22.862;2022-07-29T11:49:58;9.52;;;8.70;;
24833;SDS011;12914;43.702;22.862;2022-07-29T11:52:32;9.43;;;8.38;;
24833;SDS011;12914;43.702;22.862;2022-07-29T11:54:58;8.68;;;7.78;;
24833;SDS011;12914;43.702;22.862;2022-07-29T11:57:27;8.95;;;7.95;;
24833;SDS011;12914;43.702;22.862;2022-07-29T11:59:53;8.52;;;7.72;;
24833;SDS011;12914;43.702;22.862;2022-07-29T12:02:20;8.43;;;7.63;;
24833;SDS011;12914;43.702;22.862;2022-07-29T12:07:26;12.82;;;8.15;;
24833;SDS011;12914;43.702;22.862;2022-07-29T12:09:55;9.10;;;7.63;;
24833;SDS011;12914;43.702;22.862;2022-07-29T12:12:21;7.72;;;7.03;;
24833;SDS011;12914;43.702;22.862;2022-07-29T12:14:48;8.18;;;7.47;;
24833;SDS011;12914;43.702;22.862;2022-07-29T12:17:26;9.00;;;8.20;;
24833;SDS011;12914;43.702;22.862;2022-07-29T12:19:56;9.15;;;8.25;;
24833;SDS011;12914;43.702;22.862;2022-07-29T12:22:24;8.48;;;7.72;;
24833;SDS011;12914;43.702;22.862;2022-07-29T12:24:54;11.20;;;8.55;;
24833;SDS011;12914;43.702;22.862;2022-07-29T12:27:20;9.55;;;8.55;;
24833;SDS011;12914;43.702;22.862;2022-07-29T12:32:43;8.20;;;7.50;;
24833;SDS011;12914;43.702;22.862;2022-07-29T12:35:16;8.52;;;7.82;;
24833;SDS011;12914;43.702;22.862;2022-07-29T12:37:47;8.35;;;7.53;;
24833;SDS011;12914;43.702;22.862;2022-07-29T12:40:16;7.93;;;7.28;;
24833;SDS011;12914;43.702;22.862;2022-07-29T12:45:32;7.95;;;6.95;;
24833;SDS011;12914;43.702;22.862;2022-07-29T12:47:58;8.45;;;7.65;;
24833;SDS011;12914;43.702;22.862;2022-07-29T12:50:23;8.98;;;8.18;;
24833;SDS011;12914;43.702;22.862;2022-07-29T12:52:50;8.90;;;7.82;;
24833;SDS011;12914;43.702;22.862;2022-07-29T12:55:16;8.70;;;7.90;;
24833;SDS011;12914;43.702;22.862;2022-07-29T13:03:28;9.02;;;8.13;;
24833;SDS011;12914;43.702;22.862;2022-07-29T13:05:54;8.40;;;7.55;;
24833;SDS011;12914;43.702;22.862;2022-07-29T13:08:19;8.07;;;7.38;;
24833;SDS011;12914;43.702;22.862;2022-07-29T13:10:45;10.52;;;8.00;;
24833;SDS011;12914;43.702;22.862;2022-07-29T13:13:12;8.57;;;7.70;;
24833;SDS011;12914;43.702;22.862;2022-07-29T13:15:40;8.07;;;7.30;;
24833;SDS011;12914;43.702;22.862;2022-07-29T13:20:56;8.82;;;7.85;;
24833;SDS011;12914;43.702;22.862;2022-07-29T13:23:22;9.07;;;7.47;;
24833;SDS011;12914;43.702;22.862;2022-07-29T13:25:48;8.43;;;7.53;;
24833;SDS011;12914;43.702;22.862;2022-07-29T13:28:14;10.48;;;7.22;;
24833;SDS011;12914;43.702;22.862;2022-07-29T13:30:39;8.57;;;7.78;;
24833;SDS011;12914;43.702;22.862;2022-07-29T13:33:06;10.13;;;8.32;;
24833;SDS011;12914;43.702;22.862;2022-07-29T13:35:31;10.10;;;8.05;;
24833;SDS011;12914;43.702;22.862;2022-07-29T13:37:57;8.93;;;8.10;;
24833;SDS011;12914;43.702;22.862;2022-07-29T13:40:22;9.15;;;7.65;;
24833;SDS011;12914;43.702;22.862;2022-07-29T13:42:48;8.57;;;7.70;;
24833;SDS011;12914;43.702;22.862;2022-07-29T13:45:13;8.63;;;7.70;;
24833;SDS011;12914;43.702;22.862;2022-07-29T13:47:39;8.50;;;7.80;;
24833;SDS011;12914;43.702;22.862;2022-07-29T13:50:05;10.02;;;8.10;;
24833;SDS011;12914;43.702;22.862;2022-07-29T13:52:33;8.65;;;7.85;;
24833;SDS011;12914;43.702;22.862;2022-07-29T13:54:59;8.50;;;7.60;;
24833;SDS011;12914;43.702;22.862;2022-07-29T13:57:25;8.93;;;8.18;;
24833;SDS011;12914;43.702;22.862;2022-07-29T13:59:51;8.95;;;8.13;;
24833;SDS011;12914;43.702;22.862;2022-07-29T14:02:16;8.85;;;8.05;;
24833;SDS011;12914;43.702;22.862;2022-07-29T14:04:42;8.45;;;7.65;;
24833;SDS011;12914;43.702;22.862;2022-07-29T14:07:08;8.60;;;7.72;;
24833;SDS011;12914;43.702;22.862;2022-07-29T14:09:35;8.48;;;7.55;;
24833;SDS011;12914;43.702;22.862;2022-07-29T14:12:00;9.43;;;8.00;;
24833;SDS011;12914;43.702;22.862;2022-07-29T14:14:27;8.52;;;7.53;;
24833;SDS011;12914;43.702;22.862;2022-07-29T14:16:54;9.70;;;7.53;;
24833;SDS011;12914;43.702;22.862;2022-07-29T14:19:19;8.80;;;7.90;;
24833;SDS011;12914;43.702;22.862;2022-07-29T14:21:45;8.32;;;7.63;;
24833;SDS011;12914;43.702;22.862;2022-07-29T14:24:10;8.55;;;7.85;;
24833;SDS011;12914;43.702;22.862;2022-07-29T14:26:36;8.65;;;7.85;;
24833;SDS011;12914;43.702;22.862;2022-07-29T14:29:01;8.68;;;7.88;;
24833;SDS011;12914;43.702;22.862;2022-07-29T14:31:27;8.13;;;7.43;;
24833;SDS011;12914;43.702;22.862;2022-07-29T14:33:53;8.13;;;7.32;;
24833;SDS011;12914;43.702;22.862;2022-07-29T14:36:18;9.77;;;8.82;;
24833;SDS011;12914;43.702;22.862;2022-07-29T14:38:44;8.10;;;7.30;;
24833;SDS011;12914;43.702;22.862;2022-07-29T14:41:09;8.75;;;7.88;;
24833;SDS011;12914;43.702;22.862;2022-07-29T14:43:35;11.55;;;8.77;;
24833;SDS011;12914;43.702;22.862;2022-07-29T14:46:01;9.27;;;7.90;;
24833;SDS011;12914;43.702;22.862;2022-07-29T14:48:27;8.77;;;7.97;;
24833;SDS011;12914;43.702;22.862;2022-07-29T14:50:53;9.07;;;8.27;;
24833;SDS011;12914;43.702;22.862;2022-07-29T14:53:19;10.57;;;7.93;;
24833;SDS011;12914;43.702;22.862;2022-07-29T14:55:45;9.18;;;8.25;;
24833;SDS011;12914;43.702;22.862;2022-07-29T14:58:10;9.98;;;7.65;;
24833;SDS011;12914;43.702;22.862;2022-07-29T15:00:36;9.55;;;8.65;;
24833;SDS011;12914;43.702;22.862;2022-07-29T15:03:02;8.52;;;7.70;;
24833;SDS011;12914;43.702;22.862;2022-07-29T15:05:29;9.05;;;8.23;;
24833;SDS011;12914;43.702;22.862;2022-07-29T15:07:56;8.40;;;7.55;;
24833;SDS011;12914;43.702;22.862;2022-07-29T15:10:21;9.23;;;8.40;;
24833;SDS011;12914;43.702;22.862;2022-07-29T15:12:47;8.57;;;7.78;;
24833;SDS011;12914;43.702;22.862;2022-07-29T15:15:12;9.73;;;7.70;;
24833;SDS011;12914;43.702;22.862;2022-07-29T15:17:38;8.55;;;7.75;;
24833;SDS011;12914;43.702;22.862;2022-07-29T15:20:03;8.60;;;7.90;;
24833;SDS011;12914;43.702;22.862;2022-07-29T15:22:30;8.27;;;7.45;;
24833;SDS011;12914;43.702;22.862;2022-07-29T15:24:55;12.20;;;8.20;;
24833;SDS011;12914;43.702;22.862;2022-07-29T15:27:21;9.73;;;7.80;;
24833;SDS011;12914;43.702;22.862;2022-07-29T15:29:46;8.85;;;7.93;;
24833;SDS011;12914;43.702;22.862;2022-07-29T15:32:12;9.02;;;7.63;;
24833;SDS011;12914;43.702;22.862;2022-07-29T15:34:38;7.88;;;7.18;;
24833;SDS011;12914;43.702;22.862;2022-07-29T15:37:04;9.05;;;8.13;;
24833;SDS011;12914;43.702;22.862;2022-07-29T15:39:30;8.85;;;7.70;;
24833;SDS011;12914;43.702;22.862;2022-07-29T15:41:56;8.35;;;7.55;;
24833;SDS011;12914;43.702;22.862;2022-07-29T15:44:21;8.50;;;7.60;;
24833;SDS011;12914;43.702;22.862;2022-07-29T15:46:48;8.43;;;7.55;;
24833;SDS011;12914;43.702;22.862;2022-07-29T15:49:32;8.95;;;8.07;;
24833;SDS011;12914;43.702;22.862;2022-07-29T15:52:06;8.88;;;8.02;;
24833;SDS011;12914;43.702;22.862;2022-07-29T15:54:34;8.75;;;8.05;;